WAT5852 KJFK-KVRB
Flight info
| Callsign | WAT5852 |
|---|---|
| Flight time | N/A |
| Altitude | 34000 |
| Route | WAVEY EMJAY Q167 ZJAAY Q97 DEBRL/N0471F350 Q97 EBAYY |
| Aircraft | B738/M-SDE2E3FGHIRWXY/LB1 |
Departure
| Time | 2026-05-08 13:20 |
|---|---|
| Airport | John F. Kennedy International Airport (KJFK) |
Arrival
| Time | N/A |
|---|---|
| Airport | Vero Beach Regional Airport (KVRB) |
| Time | Latitude | Longitude | Altitude | Speed | Heading |
|---|---|---|---|---|---|
| 2026-05-08 13:06 | 40.64700 | -73.80424 | 20 ft | 0 kts | 28° |
| 2026-05-08 13:08 | 40.64691 | -73.80430 | 19 ft | 3 kts | 28° |
| 2026-05-08 13:08 | 40.64674 | -73.80441 | 20 ft | 3 kts | 28° |
| 2026-05-08 13:09 | 40.64658 | -73.80453 | 22 ft | 3 kts | 28° |
| 2026-05-08 13:09 | 40.64641 | -73.80465 | 20 ft | 3 kts | 28° |
| 2026-05-08 13:09 | 40.64625 | -73.80476 | 19 ft | 3 kts | 28° |
| 2026-05-08 13:09 | 40.64608 | -73.80488 | 22 ft | 3 kts | 28° |
| 2026-05-08 13:10 | 40.64592 | -73.80499 | 23 ft | 3 kts | 28° |
| 2026-05-08 13:10 | 40.64585 | -73.80503 | 20 ft | 0 kts | 28° |
| 2026-05-08 13:11 | 40.64590 | -73.80498 | 23 ft | 6 kts | 43° |
| 2026-05-08 13:11 | 40.64564 | -73.80441 | 20 ft | 9 kts | 146° |
| 2026-05-08 13:11 | 40.64517 | -73.80365 | 20 ft | 14 kts | 118° |
| 2026-05-08 13:12 | 40.64455 | -73.80228 | 19 ft | 19 kts | 121° |
| 2026-05-08 13:12 | 40.64388 | -73.80084 | 19 ft | 18 kts | 121° |
| 2026-05-08 13:12 | 40.64323 | -73.79943 | 20 ft | 18 kts | 123° |
| 2026-05-08 13:12 | 40.64239 | -73.79825 | 20 ft | 17 kts | 136° |
| 2026-05-08 13:13 | 40.64169 | -73.79705 | 20 ft | 16 kts | 122° |
| 2026-05-08 13:13 | 40.64110 | -73.79578 | 20 ft | 16 kts | 122° |
| 2026-05-08 13:13 | 40.64053 | -73.79458 | 19 ft | 15 kts | 121° |
| 2026-05-08 13:13 | 40.63995 | -73.79329 | 19 ft | 20 kts | 120° |
| 2026-05-08 13:14 | 40.63915 | -73.79154 | 19 ft | 24 kts | 121° |
| 2026-05-08 13:14 | 40.63829 | -73.78967 | 20 ft | 23 kts | 121° |
| 2026-05-08 13:14 | 40.63748 | -73.78787 | 20 ft | 22 kts | 121° |
| 2026-05-08 13:14 | 40.63669 | -73.78613 | 20 ft | 22 kts | 121° |
| 2026-05-08 13:15 | 40.63593 | -73.78444 | 20 ft | 21 kts | 121° |
| 2026-05-08 13:15 | 40.63519 | -73.78279 | 20 ft | 21 kts | 121° |
| 2026-05-08 13:15 | 40.63446 | -73.78120 | 20 ft | 20 kts | 120° |
| 2026-05-08 13:15 | 40.63379 | -73.77964 | 20 ft | 19 kts | 119° |
| 2026-05-08 13:16 | 40.63313 | -73.77813 | 22 ft | 19 kts | 121° |
| 2026-05-08 13:16 | 40.63247 | -73.77669 | 24 ft | 18 kts | 121° |
| 2026-05-08 13:16 | 40.63184 | -73.77529 | 21 ft | 17 kts | 120° |
| 2026-05-08 13:16 | 40.63123 | -73.77394 | 20 ft | 17 kts | 120° |
| 2026-05-08 13:17 | 40.63065 | -73.77266 | 20 ft | 15 kts | 121° |
| 2026-05-08 13:17 | 40.63017 | -73.77163 | 20 ft | 12 kts | 120° |
| 2026-05-08 13:17 | 40.62970 | -73.77087 | 20 ft | 10 kts | 156° |
| 2026-05-08 13:17 | 40.62911 | -73.77117 | 20 ft | 9 kts | 217° |
| 2026-05-08 13:18 | 40.62858 | -73.77162 | 21 ft | 9 kts | 212° |
| 2026-05-08 13:18 | 40.62827 | -73.77230 | 21 ft | 9 kts | 288° |
| 2026-05-08 13:18 | 40.62833 | -73.77243 | 22 ft | 0 kts | 298° |
| 2026-05-08 13:19 | 40.62894 | -73.77389 | 23 ft | 52 kts | 300° |
| 2026-05-08 13:19 | 40.63214 | -73.78082 | 22 ft | 123 kts | 301° |
| 2026-05-08 13:20 | 40.63748 | -73.79249 | 199 ft | 166 kts | 302° |
| 2026-05-08 13:20 | 40.64341 | -73.80568 | 1063 ft | 169 kts | 298° |
| 2026-05-08 13:20 | 40.64864 | -73.82012 | 1778 ft | 185 kts | 287° |
| 2026-05-08 13:20 | 40.64894 | -73.83758 | 2364 ft | 203 kts | 257° |
| 2026-05-08 13:21 | 40.64090 | -73.85422 | 2675 ft | 230 kts | 225° |
| 2026-05-08 13:21 | 40.62641 | -73.86346 | 3203 ft | 245 kts | 193° |
| 2026-05-08 13:21 | 40.60906 | -73.86061 | 3755 ft | 257 kts | 157° |
| 2026-05-08 13:21 | 40.59474 | -73.84685 | 4358 ft | 262 kts | 137° |
| 2026-05-08 13:22 | 40.58037 | -73.83197 | 4895 ft | 265 kts | 159° |
| 2026-05-08 13:22 | 40.56294 | -73.82475 | 5548 ft | 263 kts | 167° |
| 2026-05-08 13:22 | 40.54521 | -73.81813 | 6107 ft | 267 kts | 167° |
| 2026-05-08 13:22 | 40.52725 | -73.81126 | 6657 ft | 270 kts | 167° |
| 2026-05-08 13:23 | 40.50913 | -73.80420 | 7190 ft | 274 kts | 167° |
| 2026-05-08 13:23 | 40.49059 | -73.79688 | 7611 ft | 286 kts | 167° |
| 2026-05-08 13:23 | 40.47103 | -73.78911 | 7993 ft | 300 kts | 167° |
| 2026-05-08 13:23 | 40.45083 | -73.78099 | 8730 ft | 305 kts | 167° |
| 2026-05-08 13:24 | 40.43053 | -73.77277 | 9595 ft | 306 kts | 167° |
| 2026-05-08 13:24 | 40.40997 | -73.76442 | 10293 ft | 313 kts | 167° |